Time;durP1;ratioP1;P1;durP2;ratioP2;P2;SDS_P1;SDS_P2;PMS_P1;PMS_P2;Temp;Humidity;BMP_temperature;BMP_pressure;BME280_temperature;BME280_humidity;BME280_pressure;Samples;Min_cycle;Max_cycle;Signal;HPM_P1;HPM_P2
2021/07/16 00:01:35;;;;;;;9.73;2.00;;;;;;;;;;5054057;28;20047;-68
2021/07/16 00:04:01;;;;;;;6.13;1.67;;;;;;;;;;5071915;28;20499;-68
2021/07/16 00:06:28;;;;;;;6.70;1.50;;;;;;;;;;5071746;28;20058;-68
2021/07/16 00:08:54;;;;;;;6.70;1.65;;;;;;;;;;5071482;28;20460;-68
2021/07/16 00:11:20;;;;;;;7.32;1.60;;;;;;;;;;5053995;28;20034;-69
2021/07/16 00:13:46;;;;;;;5.63;1.67;;;;;;;;;;5071757;28;20504;-68
2021/07/16 00:16:12;;;;;;;7.47;1.70;;;;;;;;;;5061985;28;20029;-69
2021/07/16 00:18:38;;;;;;;4.72;1.40;;;;;;;;;;5051922;28;20025;-68
2021/07/16 00:21:04;;;;;;;5.75;1.50;;;;;;;;;;5051853;28;20095;-67
2021/07/16 00:23:31;;;;;;;9.25;1.52;;;;;;;;;;5051805;28;20359;-68
2021/07/16 00:25:57;;;;;;;6.43;2.13;;;;;;;;;;5051609;28;20107;-68
2021/07/16 00:28:23;;;;;;;8.10;4.43;;;;;;;;;;5050382;28;20047;-68
2021/07/16 00:30:51;;;;;;;15.10;5.72;;;;;;;;;;5051862;28;20032;-67
2021/07/16 00:33:17;;;;;;;12.48;5.05;;;;;;;;;;5050485;28;20024;-68
2021/07/16 00:35:43;;;;;;;9.25;4.32;;;;;;;;;;5051613;28;20057;-68
2021/07/16 00:38:09;;;;;;;13.45;3.53;;;;;;;;;;5051638;28;20017;-68
2021/07/16 00:40:35;;;;;;;5.75;2.30;;;;;;;;;;5051634;28;20021;-68
2021/07/16 00:43:01;;;;;;;7.07;2.25;;;;;;;;;;5051593;28;20021;-67
2021/07/16 00:45:27;;;;;;;7.47;2.17;;;;;;;;;;5051434;28;20512;-67
2021/07/16 00:47:53;;;;;;;4.32;1.48;;;;;;;;;;5051370;28;20025;-68
2021/07/16 00:50:22;;;;;;;6.50;1.83;;;;;;;;;;5051490;28;20029;-68
2021/07/16 00:52:48;;;;;;;5.32;1.67;;;;;;;;;;5051544;28;20030;-68
2021/07/16 00:55:16;;;;;;;6.38;1.30;;;;;;;;;;5051523;28;20556;-67
2021/07/16 00:57:42;;;;;;;6.25;1.58;;;;;;;;;;5051340;28;20100;-68
2021/07/16 01:00:09;;;;;;;5.53;1.48;;;;;;;;;;5051445;28;20027;-67
2021/07/16 01:02:36;;;;;;;5.95;1.65;;;;;;;;;;5051116;28;20031;-67
2021/07/16 01:05:02;;;;;;;5.47;1.45;;;;;;;;;;5051194;28;20037;-68
2021/07/16 01:07:29;;;;;;;8.13;1.48;;;;;;;;;;5051147;28;20025;-68
2021/07/16 01:09:55;;;;;;;4.47;1.60;;;;;;;;;;5089175;28;20028;-68
2021/07/16 01:12:22;;;;;;;5.85;1.80;;;;;;;;;;5091302;28;20020;-68
2021/07/16 01:14:48;;;;;;;6.95;1.33;;;;;;;;;;5091500;28;20110;-67
2021/07/16 01:17:15;;;;;;;9.80;1.70;;;;;;;;;;5054395;28;20021;-68
2021/07/16 01:19:44;;;;;;;5.40;1.27;;;;;;;;;;5052398;28;20120;-68
2021/07/16 01:22:10;;;;;;;5.50;1.70;;;;;;;;;;5054818;28;20091;-68
2021/07/16 01:24:37;;;;;;;3.30;1.30;;;;;;;;;;5054804;28;20064;-67
2021/07/16 01:27:03;;;;;;;5.93;1.48;;;;;;;;;;5053576;28;20528;-68
2021/07/16 01:29:29;;;;;;;5.50;1.80;;;;;;;;;;5054620;28;20546;-67
2021/07/16 01:31:55;;;;;;;5.20;1.60;;;;;;;;;;5054709;28;20816;-68
2021/07/16 01:34:21;;;;;;;6.93;1.85;;;;;;;;;;5054658;28;20478;-68
2021/07/16 01:36:47;;;;;;;4.15;1.73;;;;;;;;;;5054694;28;20024;-68
2021/07/16 01:39:13;;;;;;;5.50;1.58;;;;;;;;;;5053358;28;20021;-68
2021/07/16 01:41:39;;;;;;;4.28;1.40;;;;;;;;;;5054458;28;20053;-68
2021/07/16 01:44:06;;;;;;;5.30;1.88;;;;;;;;;;5054431;28;20037;-67
2021/07/16 01:46:32;;;;;;;9.23;1.90;;;;;;;;;;5053098;28;20017;-68
2021/07/16 01:48:59;;;;;;;4.22;1.60;;;;;;;;;;5054520;28;20029;-68
2021/07/16 01:51:25;;;;;;;6.75;1.58;;;;;;;;;;5054981;28;20052;-68
2021/07/16 01:53:52;;;;;;;4.38;1.52;;;;;;;;;;5054227;28;20384;-68
2021/07/16 01:56:18;;;;;;;4.10;1.35;;;;;;;;;;5053147;28;20501;-69
2021/07/16 01:58:45;;;;;;;5.60;1.75;;;;;;;;;;5054208;28;20516;-67
2021/07/16 02:01:14;;;;;;;4.78;1.52;;;;;;;;;;5053987;28;20032;-68
2021/07/16 02:03:43;;;;;;;6.68;1.65;;;;;;;;;;5053816;28;20017;-68
2021/07/16 02:06:09;;;;;;;5.18;1.63;;;;;;;;;;5053929;28;20049;-68
2021/07/16 02:08:35;;;;;;;3.50;1.50;;;;;;;;;;5053820;28;20021;-68
2021/07/16 02:11:01;;;;;;;11.90;1.50;;;;;;;;;;5053957;28;20033;-68
2021/07/16 02:13:27;;;;;;;3.72;1.40;;;;;;;;;;5053561;28;20072;-68
2021/07/16 02:15:54;;;;;;;4.75;1.52;;;;;;;;;;5053452;28;20021;-68
2021/07/16 02:18:21;;;;;;;6.85;1.52;;;;;;;;;;5053718;28;20363;-68
2021/07/16 02:20:47;;;;;;;6.53;1.67;;;;;;;;;;5053610;28;20025;-67
2021/07/16 02:23:16;;;;;;;8.35;1.90;;;;;;;;;;5053320;28;20507;-68
2021/07/16 02:25:42;;;;;;;10.48;1.38;;;;;;;;;;5053736;28;20040;-68
2021/07/16 02:28:09;;;;;;;6.45;1.42;;;;;;;;;;5053562;28;20039;-68
2021/07/16 02:30:35;;;;;;;5.80;1.80;;;;;;;;;;5052759;28;20036;-68
2021/07/16 02:33:02;;;;;;;8.82;1.70;;;;;;;;;;5053534;28;20023;-67
2021/07/16 02:35:29;;;;;;;4.50;1.52;;;;;;;;;;5053341;28;20028;-67
2021/07/16 02:37:56;;;;;;;4.15;1.38;;;;;;;;;;5053233;28;20083;-68
2021/07/16 02:40:22;;;;;;;6.53;2.00;;;;;;;;;;5052088;28;20025;-68
2021/07/16 02:42:48;;;;;;;4.68;1.50;;;;;;;;;;5053445;28;20044;-68
2021/07/16 02:45:16;;;;;;;8.05;1.70;;;;;;;;;;5053414;28;20057;-69
2021/07/16 02:47:42;;;;;;;7.97;2.08;;;;;;;;;;5053291;28;20032;-68
2021/07/16 02:50:10;;;;;;;3.55;1.50;;;;;;;;;;5053307;28;20479;-67
2021/07/16 02:52:36;;;;;;;8.70;2.00;;;;;;;;;;5053336;28;20021;-67
2021/07/16 02:55:03;;;;;;;6.18;1.73;;;;;;;;;;5053201;28;20117;-67
2021/07/16 02:57:29;;;;;;;7.40;1.90;;;;;;;;;;5053257;28;20060;-67
2021/07/16 02:59:55;;;;;;;8.10;1.80;;;;;;;;;;5052969;28;20094;-67
2021/07/16 03:02:21;;;;;;;4.75;1.33;;;;;;;;;;5053156;28;20054;-67
2021/07/16 03:04:49;;;;;;;7.72;2.10;;;;;;;;;;5051494;28;20057;-67
2021/07/16 03:07:16;;;;;;;7.95;1.67;;;;;;;;;;5052767;28;20020;-67
2021/07/16 03:09:42;;;;;;;5.90;1.95;;;;;;;;;;5052512;28;20021;-66
2021/07/16 03:12:08;;;;;;;6.80;1.48;;;;;;;;;;5052592;28;20025;-67
2021/07/16 03:14:34;;;;;;;5.50;1.67;;;;;;;;;;5052447;28;20069;-69
2021/07/16 03:17:00;;;;;;;8.60;1.88;;;;;;;;;;5052695;28;20017;-69
2021/07/16 03:19:26;;;;;;;11.00;1.45;;;;;;;;;;5051167;28;20044;-68
2021/07/16 03:21:52;;;;;;;5.93;1.33;;;;;;;;;;5052426;28;20017;-69
2021/07/16 03:24:19;;;;;;;4.63;1.70;;;;;;;;;;5052481;28;20033;-69
2021/07/16 03:26:45;;;;;;;9.15;1.65;;;;;;;;;;5052228;28;20032;-69
2021/07/16 03:29:13;;;;;;;4.57;1.65;;;;;;;;;;5052357;28;20013;-69
2021/07/16 03:31:39;;;;;;;4.93;1.95;;;;;;;;;;5052082;28;20475;-68
2021/07/16 03:34:05;;;;;;;7.00;2.17;;;;;;;;;;5052446;28;20078;-67
2021/07/16 03:36:31;;;;;;;21.08;2.03;;;;;;;;;;5051118;28;20031;-67
2021/07/16 03:38:57;;;;;;;5.55;2.05;;;;;;;;;;5054080;28;20108;-67
2021/07/16 03:41:23;;;;;;;5.47;1.73;;;;;;;;;;5071953;28;20033;-67
2021/07/16 03:43:49;;;;;;;10.82;1.80;;;;;;;;;;5072266;28;20028;-67
2021/07/16 03:46:16;;;;;;;6.95;1.80;;;;;;;;;;5072216;28;20032;-67
2021/07/16 03:48:42;;;;;;;5.53;1.50;;;;;;;;;;5072230;28;20474;-67
2021/07/16 03:51:09;;;;;;;7.80;1.88;;;;;;;;;;5072071;28;20021;-67
2021/07/16 03:53:35;;;;;;;7.50;1.88;;;;;;;;;;5071986;28;20020;-67
2021/07/16 03:56:01;;;;;;;7.53;1.50;;;;;;;;;;5071655;28;20495;-67
2021/07/16 03:58:27;;;;;;;12.00;1.90;;;;;;;;;;5071875;28;20497;-67
2021/07/16 04:00:53;;;;;;;7.53;2.03;;;;;;;;;;5071797;28;20489;-67
2021/07/16 04:03:21;;;;;;;6.95;1.90;;;;;;;;;;5071954;28;20028;-67
2021/07/16 04:05:47;;;;;;;11.43;1.75;;;;;;;;;;5071881;28;20028;-67
2021/07/16 04:08:17;;;;;;;6.25;2.10;;;;;;;;;;5072002;28;20055;-68
2021/07/16 04:10:43;;;;;;;10.48;2.17;;;;;;;;;;5071988;28;20504;-67
2021/07/16 04:13:10;;;;;;;7.95;1.85;;;;;;;;;;5071658;28;20547;-68
2021/07/16 04:15:39;;;;;;;11.20;2.08;;;;;;;;;;5066562;28;20490;-69
2021/07/16 04:18:05;;;;;;;7.80;1.90;;;;;;;;;;5051794;28;20029;-68
2021/07/16 04:20:33;;;;;;;11.80;1.50;;;;;;;;;;5051906;28;20462;-67
2021/07/16 04:22:59;;;;;;;7.68;1.88;;;;;;;;;;5051787;28;20040;-68
2021/07/16 04:25:25;;;;;;;5.10;1.90;;;;;;;;;;5051773;28;20068;-67
2021/07/16 04:27:53;;;;;;;6.30;2.00;;;;;;;;;;5051684;28;20021;-67
2021/07/16 04:30:20;;;;;;;8.43;2.50;;;;;;;;;;5050372;28;20098;-68
2021/07/16 04:32:47;;;;;;;4.90;2.00;;;;;;;;;;5051536;28;20025;-68
2021/07/16 04:35:16;;;;;;;9.20;1.70;;;;;;;;;;5051574;28;20409;-68
2021/07/16 04:37:43;;;;;;;8.50;1.95;;;;;;;;;;5051554;28;20024;-68
2021/07/16 04:40:11;;;;;;;6.72;1.60;;;;;;;;;;5051570;28;20032;-68
2021/07/16 04:42:37;;;;;;;10.23;2.20;;;;;;;;;;5051620;28;20009;-68
2021/07/16 04:45:04;;;;;;;6.28;2.40;;;;;;;;;;5051497;28;20108;-69
2021/07/16 04:47:30;;;;;;;8.52;2.53;;;;;;;;;;5051592;28;20027;-68
2021/07/16 04:49:56;;;;;;;11.15;3.28;;;;;;;;;;5051454;28;20090;-67
2021/07/16 04:52:23;;;;;;;7.55;3.63;;;;;;;;;;5051613;28;20028;-66
2021/07/16 04:54:49;;;;;;;8.80;3.17;;;;;;;;;;5054248;28;20013;-67
2021/07/16 04:57:15;;;;;;;6.95;2.47;;;;;;;;;;5055424;28;20631;-67
2021/07/16 04:59:41;;;;;;;24.13;2.83;;;;;;;;;;5055319;28;20032;-68
2021/07/16 05:02:07;;;;;;;12.38;2.80;;;;;;;;;;5053956;28;20032;-68
2021/07/16 05:04:33;;;;;;;8.00;2.10;;;;;;;;;;5055052;28;20069;-68
2021/07/16 05:06:59;;;;;;;9.65;2.30;;;;;;;;;;5055119;28;20096;-67
2021/07/16 05:09:25;;;;;;;4.78;1.83;;;;;;;;;;5053660;28;20052;-68
2021/07/16 05:11:51;;;;;;;7.63;2.10;;;;;;;;;;5054723;28;20022;-67
2021/07/16 05:14:18;;;;;;;5.50;1.92;;;;;;;;;;5053553;28;20143;-68
2021/07/16 05:16:44;;;;;;;4.30;1.90;;;;;;;;;;5053625;28;20408;-68
2021/07/16 05:19:10;;;;;;;5.35;2.22;;;;;;;;;;5054997;28;20033;-68
2021/07/16 05:21:36;;;;;;;9.57;2.30;;;;;;;;;;5054956;28;20025;-68
2021/07/16 05:24:03;;;;;;;7.53;2.15;;;;;;;;;;5054742;28;20032;-69
2021/07/16 05:26:29;;;;;;;9.10;2.40;;;;;;;;;;5054671;28;20112;-68
2021/07/16 05:28:55;;;;;;;7.05;2.25;;;;;;;;;;5054815;28;20194;-68
2021/07/16 05:31:21;;;;;;;6.95;2.28;;;;;;;;;;5054688;28;20029;-68
2021/07/16 05:33:47;;;;;;;7.07;3.00;;;;;;;;;;5054758;28;20584;-69
2021/07/16 05:36:14;;;;;;;10.75;2.63;;;;;;;;;;5053285;28;20068;-68
2021/07/16 05:38:40;;;;;;;13.65;2.92;;;;;;;;;;5054601;28;20017;-68
2021/07/16 05:41:06;;;;;;;6.80;2.63;;;;;;;;;;5054412;28;20079;-68
2021/07/16 05:43:33;;;;;;;7.78;2.80;;;;;;;;;;5054403;28;20021;-68
2021/07/16 05:45:59;;;;;;;10.95;2.90;;;;;;;;;;5054262;28;20183;-67
2021/07/16 05:48:25;;;;;;;9.40;3.03;;;;;;;;;;5054407;28;20079;-69
2021/07/16 05:50:52;;;;;;;12.00;3.03;;;;;;;;;;5054254;28;20028;-69
2021/07/16 05:53:18;;;;;;;7.85;3.20;;;;;;;;;;5054494;28;20096;-69
2021/07/16 05:55:44;;;;;;;14.40;3.72;;;;;;;;;;5053952;28;20033;-68
2021/07/16 05:58:10;;;;;;;10.55;4.28;;;;;;;;;;5054206;28;20022;-69
2021/07/16 06:00:37;;;;;;;15.80;4.80;;;;;;;;;;5054115;28;20025;-68
2021/07/16 06:03:03;;;;;;;11.18;4.47;;;;;;;;;;5053988;28;20021;-68
2021/07/16 06:05:32;;;;;;;13.43;5.18;;;;;;;;;;5052497;28;20032;-67
2021/07/16 06:07:58;;;;;;;14.40;4.68;;;;;;;;;;5053869;28;20023;-68
2021/07/16 06:10:25;;;;;;;14.32;5.75;;;;;;;;;;5053634;28;20056;-68
2021/07/16 06:12:51;;;;;;;10.77;7.15;;;;;;;;;;5053723;28;20131;-69
2021/07/16 06:15:17;;;;;;;15.13;7.20;;;;;;;;;;5053634;28;20041;-68
2021/07/16 06:17:43;;;;;;;22.73;6.80;;;;;;;;;;5053665;28;20023;-68
2021/07/16 06:20:10;;;;;;;16.05;7.47;;;;;;;;;;5053665;28;20118;-69
2021/07/16 06:22:37;;;;;;;15.73;6.82;;;;;;;;;;5053565;28;20091;-68
2021/07/16 06:25:04;;;;;;;14.23;6.15;;;;;;;;;;5053610;28;20547;-69
2021/07/16 06:27:30;;;;;;;16.83;6.00;;;;;;;;;;5052361;28;20025;-69
2021/07/16 06:29:56;;;;;;;10.65;5.70;;;;;;;;;;5053311;28;20021;-69
2021/07/16 06:32:22;;;;;;;10.63;5.68;;;;;;;;;;5052286;28;20025;-69
2021/07/16 06:34:48;;;;;;;14.38;5.65;;;;;;;;;;5053443;28;20032;-68
2021/07/16 06:37:14;;;;;;;11.55;5.13;;;;;;;;;;5053317;28;20028;-68
2021/07/16 06:39:40;;;;;;;11.30;5.65;;;;;;;;;;5053323;28;20036;-69
2021/07/16 06:42:06;;;;;;;15.52;5.57;;;;;;;;;;5053356;28;20017;-69
2021/07/16 06:44:33;;;;;;;14.07;5.28;;;;;;;;;;5053304;28;20025;-68
2021/07/16 06:46:59;;;;;;;16.58;5.85;;;;;;;;;;5052026;28;20061;-68
2021/07/16 06:49:28;;;;;;;10.15;5.07;;;;;;;;;;5053357;28;20089;-68
2021/07/16 06:51:58;;;;;;;18.45;5.65;;;;;;;;;;5053050;28;20032;-68
2021/07/16 06:54:28;;;;;;;10.70;4.88;;;;;;;;;;5053196;28;20489;-69
2021/07/16 06:56:54;;;;;;;17.48;5.40;;;;;;;;;;5051788;28;20078;-68
2021/07/16 06:59:21;;;;;;;14.68;5.07;;;;;;;;;;5053048;28;20033;-67
2021/07/16 07:01:47;;;;;;;15.27;5.18;;;;;;;;;;5053200;28;20025;-68
2021/07/16 07:04:13;;;;;;;12.60;5.10;;;;;;;;;;5052795;28;20053;-68
2021/07/16 07:06:39;;;;;;;11.90;4.90;;;;;;;;;;5052909;28;20496;-69
2021/07/16 07:09:05;;;;;;;15.20;4.50;;;;;;;;;;5052856;28;20091;-68
2021/07/16 07:11:32;;;;;;;9.25;3.72;;;;;;;;;;5052954;28;20032;-68
2021/07/16 07:13:58;;;;;;;55.20;5.93;;;;;;;;;;5052672;28;20041;-68
2021/07/16 07:16:24;;;;;;;24.60;4.70;;;;;;;;;;5052178;28;20052;-67
2021/07/16 07:18:50;;;;;;;26.23;4.65;;;;;;;;;;5052635;28;20017;-68
2021/07/16 07:21:16;;;;;;;18.63;4.95;;;;;;;;;;5051456;28;20133;-67
2021/07/16 07:23:43;;;;;;;13.15;4.55;;;;;;;;;;5052324;28;20032;-68
2021/07/16 07:26:09;;;;;;;17.48;4.82;;;;;;;;;;5051048;28;20116;-68
2021/07/16 07:28:35;;;;;;;26.27;5.18;;;;;;;;;;5052404;28;20478;-67
2021/07/16 07:31:01;;;;;;;17.15;5.45;;;;;;;;;;5052250;28;20055;-68
2021/07/16 07:33:27;;;;;;;18.95;4.57;;;;;;;;;;5052065;28;20059;-68
2021/07/16 07:35:56;;;;;;;16.70;4.60;;;;;;;;;;5052301;28;20021;-68
2021/07/16 07:38:22;;;;;;;13.13;4.35;;;;;;;;;;5052206;28;20017;-67
2021/07/16 07:40:48;;;;;;;11.32;4.13;;;;;;;;;;5070405;28;20493;-68
2021/07/16 07:43:14;;;;;;;12.98;4.60;;;;;;;;;;5070740;28;20523;-67
2021/07/16 07:45:40;;;;;;;12.77;4.18;;;;;;;;;;5071879;28;20033;-67
2021/07/16 07:48:06;;;;;;;11.18;3.72;;;;;;;;;;5071846;28;20031;-68
2021/07/16 07:50:33;;;;;;;10.30;3.35;;;;;;;;;;5071882;28;20020;-68
2021/07/16 07:53:00;;;;;;;13.95;3.60;;;;;;;;;;5072065;28;20033;-68
2021/07/16 07:55:26;;;;;;;8.15;3.00;;;;;;;;;;5071835;28;20085;-68
2021/07/16 07:57:54;;;;;;;8.00;2.97;;;;;;;;;;5071862;28;20420;-68
2021/07/16 08:00:22;;;;;;;8.80;3.20;;;;;;;;;;5072097;28;20024;-67
2021/07/16 08:02:48;;;;;;;10.20;3.10;;;;;;;;;;5072133;28;20027;-67
2021/07/16 08:05:14;;;;;;;6.38;3.13;;;;;;;;;;5071723;28;20112;-69
2021/07/16 08:07:40;;;;;;;10.65;3.25;;;;;;;;;;5071855;28;20116;-68
2021/07/16 08:10:08;;;;;;;11.63;2.70;;;;;;;;;;5071880;28;20021;-68
2021/07/16 08:12:34;;;;;;;11.75;3.47;;;;;;;;;;5071732;28;20043;-68
2021/07/16 08:15:00;;;;;;;7.97;2.80;;;;;;;;;;5071691;28;20123;-67
2021/07/16 08:17:26;;;;;;;5.43;2.60;;;;;;;;;;5051390;28;20143;-67
2021/07/16 08:19:53;;;;;;;7.97;2.65;;;;;;;;;;5050356;28;20108;-68
2021/07/16 08:22:19;;;;;;;7.82;2.47;;;;;;;;;;5051783;28;20025;-68
2021/07/16 08:24:45;;;;;;;9.27;2.75;;;;;;;;;;5051707;28;20029;-68
2021/07/16 08:27:11;;;;;;;8.52;3.20;;;;;;;;;;5051600;28;20032;-66
2021/07/16 08:29:37;;;;;;;9.52;2.90;;;;;;;;;;5054075;28;20084;-68
2021/07/16 08:32:03;;;;;;;11.93;2.90;;;;;;;;;;5055872;28;20028;-68
2021/07/16 08:34:29;;;;;;;8.45;3.63;;;;;;;;;;5055899;28;20021;-68
2021/07/16 08:36:55;;;;;;;5.80;2.80;;;;;;;;;;5055794;28;20481;-68
2021/07/16 08:39:21;;;;;;;9.05;2.92;;;;;;;;;;5054326;28;20028;-67
2021/07/16 08:41:47;;;;;;;7.88;2.88;;;;;;;;;;5055502;28;20025;-68
2021/07/16 08:44:14;;;;;;;10.15;3.25;;;;;;;;;;5055321;28;20021;-68
2021/07/16 08:46:44;;;;;;;7.70;2.78;;;;;;;;;;5055135;28;20033;-68
2021/07/16 08:49:11;;;;;;;7.75;2.95;;;;;;;;;;5055479;28;20108;-68
2021/07/16 08:51:38;;;;;;;6.13;3.17;;;;;;;;;;5055559;28;20389;-68
2021/07/16 08:54:07;;;;;;;8.27;2.80;;;;;;;;;;5054210;28;20079;-68
2021/07/16 08:56:36;;;;;;;7.25;2.67;;;;;;;;;;5055399;28;20017;-67
2021/07/16 08:59:05;;;;;;;4.63;2.63;;;;;;;;;;5055388;28;20029;-68
2021/07/16 09:01:32;;;;;;;5.07;2.45;;;;;;;;;;5055342;28;20102;-68
2021/07/16 09:03:58;;;;;;;6.47;3.17;;;;;;;;;;5055094;28;20063;-69
2021/07/16 09:06:43;;;;;;;9.05;3.00;;;;;;;;;;5055182;28;20035;-68
2021/07/16 09:09:09;;;;;;;10.68;3.70;;;;;;;;;;5053850;28;20025;-67
2021/07/16 09:11:42;;;;;;;6.70;3.22;;;;;;;;;;5055069;28;20397;-68
2021/07/16 09:14:09;;;;;;;8.00;3.30;;;;;;;;;;5054900;28;20049;-67
2021/07/16 09:16:35;;;;;;;10.20;2.80;;;;;;;;;;5053602;28;20108;-68
2021/07/16 09:19:01;;;;;;;14.35;3.15;;;;;;;;;;5055053;28;20100;-67
2021/07/16 09:21:27;;;;;;;7.45;2.53;;;;;;;;;;5053921;28;20074;-67
2021/07/16 09:23:53;;;;;;;11.00;2.83;;;;;;;;;;5055220;28;20055;-68
2021/07/16 09:26:28;;;;;;;8.25;3.03;;;;;;;;;;5054727;28;20037;-67
2021/07/16 09:28:56;;;;;;;7.72;3.05;;;;;;;;;;5054955;28;20017;-67
2021/07/16 09:31:24;;;;;;;9.98;3.22;;;;;;;;;;5054864;28;20037;-67
2021/07/16 09:33:51;;;;;;;9.05;2.70;;;;;;;;;;5054790;28;20514;-67
2021/07/16 09:36:23;;;;;;;7.18;2.50;;;;;;;;;;5054485;28;20021;-68
2021/07/16 09:38:51;;;;;;;9.65;3.22;;;;;;;;;;5053310;28;20021;-67
2021/07/16 09:41:17;;;;;;;7.70;2.63;;;;;;;;;;5054084;28;20310;-68
2021/07/16 09:43:43;;;;;;;7.07;2.75;;;;;;;;;;5054439;28;20032;-67
2021/07/16 09:46:09;;;;;;;10.32;3.08;;;;;;;;;;5054554;28;20072;-68
2021/07/16 09:48:36;;;;;;;9.40;2.67;;;;;;;;;;5054542;28;20021;-68
2021/07/16 09:51:13;;;;;;;8.52;3.05;;;;;;;;;;5054439;28;20091;-67
2021/07/16 09:53:42;;;;;;;7.57;3.00;;;;;;;;;;5054338;28;20447;-68
2021/07/16 09:56:12;;;;;;;14.82;3.10;;;;;;;;;;5054363;28;20127;-67
2021/07/16 09:58:38;;;;;;;11.75;2.78;;;;;;;;;;5052804;28;20036;-68
2021/07/16 10:01:05;;;;;;;6.88;2.60;;;;;;;;;;5052556;28;20021;-67
2021/07/16 10:03:32;;;;;;;7.70;2.85;;;;;;;;;;5053780;28;20025;-68
2021/07/16 10:06:00;;;;;;;4.20;2.30;;;;;;;;;;5053643;28;20470;-68
2021/07/16 10:08:31;;;;;;;8.73;2.50;;;;;;;;;;5053857;28;20111;-67
2021/07/16 10:10:58;;;;;;;6.35;2.45;;;;;;;;;;5054166;28;20020;-68
2021/07/16 10:13:24;;;;;;;6.97;2.90;;;;;;;;;;5049264;28;20505;-68
2021/07/16 10:15:50;;;;;;;9.00;3.28;;;;;;;;;;5033579;28;20030;-68
2021/07/16 10:18:16;;;;;;;5.30;2.80;;;;;;;;;;5034022;28;20018;-68
2021/07/16 10:20:42;;;;;;;9.98;2.90;;;;;;;;;;5034020;28;20029;-68
2021/07/16 10:23:10;;;;;;;6.25;2.90;;;;;;;;;;5033856;28;20017;-67
2021/07/16 10:25:36;;;;;;;9.68;3.85;;;;;;;;;;5033876;28;20112;-68
2021/07/16 10:28:02;;;;;;;7.53;3.13;;;;;;;;;;5033660;28;20029;-68
2021/07/16 10:30:32;;;;;;;6.38;3.05;;;;;;;;;;5032451;28;20029;-67
2021/07/16 10:33:00;;;;;;;7.75;3.33;;;;;;;;;;5033658;28;20027;-68
2021/07/16 10:35:27;;;;;;;7.97;3.58;;;;;;;;;;5033672;28;20017;-68
2021/07/16 10:37:54;;;;;;;8.68;3.70;;;;;;;;;;5033875;28;20036;-67
2021/07/16 10:40:35;;;;;;;7.80;3.17;;;;;;;;;;5033601;28;20017;-68
2021/07/16 10:43:02;;;;;;;10.57;4.13;;;;;;;;;;5033568;28;20494;-68
2021/07/16 10:45:32;;;;;;;7.50;3.45;;;;;;;;;;5033182;28;20026;-68
2021/07/16 10:48:14;;;;;;;11.40;3.47;;;;;;;;;;5033367;28;20026;-68
2021/07/16 10:50:41;;;;;;;6.10;3.53;;;;;;;;;;5033240;28;20021;-68
2021/07/16 10:53:12;;;;;;;6.28;3.28;;;;;;;;;;5032748;28;20530;-68
2021/07/16 10:55:38;;;;;;;14.18;3.42;;;;;;;;;;5033182;28;20104;-68
2021/07/16 10:58:16;;;;;;;10.13;3.53;;;;;;;;;;5033037;28;20101;-68
2021/07/16 11:00:42;;;;;;;10.07;3.20;;;;;;;;;;5033030;28;20025;-66
2021/07/16 11:03:09;;;;;;;9.88;3.45;;;;;;;;;;5032956;28;20017;-68
2021/07/16 11:05:35;;;;;;;7.30;3.30;;;;;;;;;;5032942;28;20037;-67
2021/07/16 11:08:02;;;;;;;8.40;3.15;;;;;;;;;;5032732;28;20710;-69
2021/07/16 11:10:47;;;;;;;6.43;2.88;;;;;;;;;;5033148;28;20013;-68
2021/07/16 11:13:31;;;;;;;6.80;2.67;;;;;;;;;;5041239;28;20121;-68
2021/07/16 11:15:57;;;;;;;11.95;3.10;;;;;;;;;;5052277;28;20017;-68
2021/07/16 11:18:27;;;;;;;7.90;3.15;;;;;;;;;;5052665;28;20426;-68
2021/07/16 11:20:53;;;;;;;9.10;2.50;;;;;;;;;;5051347;28;20036;-68
2021/07/16 11:23:20;;;;;;;8.52;3.58;;;;;;;;;;5052541;28;20104;-68
2021/07/16 11:25:47;;;;;;;8.70;3.00;;;;;;;;;;5052314;28;20036;-68
2021/07/16 11:28:13;;;;;;;7.38;2.78;;;;;;;;;;5052429;28;20025;-68
2021/07/16 11:30:43;;;;;;;7.35;2.80;;;;;;;;;;5052434;28;20021;-68
2021/07/16 11:33:10;;;;;;;5.15;2.70;;;;;;;;;;5052278;28;20021;-68
2021/07/16 11:35:37;;;;;;;5.00;2.50;;;;;;;;;;5052749;28;20032;-68
2021/07/16 11:38:07;;;;;;;7.85;2.80;;;;;;;;;;5051995;28;20388;-68
2021/07/16 11:40:34;;;;;;;6.80;2.97;;;;;;;;;;5071848;28;20028;-67
2021/07/16 11:43:01;;;;;;;6.93;2.20;;;;;;;;;;5072352;28;20021;-68
2021/07/16 11:45:29;;;;;;;20.27;4.50;;;;;;;;;;5071952;28;20093;-66
2021/07/16 11:47:56;;;;;;;19.77;3.88;;;;;;;;;;5071844;28;20108;-67
2021/07/16 11:50:22;;;;;;;11.02;3.55;;;;;;;;;;5053872;28;20083;-68
2021/07/16 11:52:50;;;;;;;15.02;3.13;;;;;;;;;;5072265;28;20025;-67
2021/07/16 11:55:18;;;;;;;7.13;3.00;;;;;;;;;;5072223;28;20103;-67
2021/07/16 11:57:47;;;;;;;11.73;3.40;;;;;;;;;;5072098;28;20095;-67
2021/07/16 12:00:14;;;;;;;9.00;2.50;;;;;;;;;;5072103;28;20020;-67
2021/07/16 12:02:40;;;;;;;8.52;2.67;;;;;;;;;;5071941;28;20074;-68
2021/07/16 12:05:06;;;;;;;12.25;2.33;;;;;;;;;;5053853;28;20044;-67
2021/07/16 12:07:37;;;;;;;9.05;2.20;;;;;;;;;;5072290;28;20021;-67
2021/07/16 12:10:10;;;;;;;11.32;2.38;;;;;;;;;;5072018;28;20031;-70
2021/07/16 12:12:37;;;;;;;7.22;1.95;;;;;;;;;;5071463;28;20052;-70
2021/07/16 12:15:07;;;;;;;6.88;2.17;;;;;;;;;;5071797;28;20489;-68
2021/07/16 12:17:40;;;;;;;7.55;2.15;;;;;;;;;;5071665;28;20107;-69
2021/07/16 12:20:08;;;;;;;12.85;2.30;;;;;;;;;;5071680;28;20100;-69
2021/07/16 12:22:35;;;;;;;7.90;2.00;;;;;;;;;;5071495;28;20029;-68
2021/07/16 12:25:03;;;;;;;11.88;1.73;;;;;;;;;;5071214;28;20115;-68
2021/07/16 12:27:29;;;;;;;11.13;2.08;;;;;;;;;;5071649;28;20029;-67
2021/07/16 12:29:55;;;;;;;8.98;2.05;;;;;;;;;;5053572;28;20048;-69
2021/07/16 12:32:31;;;;;;;8.85;2.15;;;;;;;;;;5071519;28;20033;-68
2021/07/16 12:34:57;;;;;;;6.82;1.98;;;;;;;;;;5071517;28;20028;-69
2021/07/16 12:37:23;;;;;;;7.30;2.13;;;;;;;;;;5071479;28;20013;-67
2021/07/16 12:40:00;;;;;;;5.65;2.13;;;;;;;;;;5071550;28;20035;-68
2021/07/16 12:42:26;;;;;;;7.78;2.45;;;;;;;;;;5053601;28;20070;-68
2021/07/16 12:45:07;;;;;;;13.13;2.40;;;;;;;;;;5071623;28;20473;-70
2021/07/16 12:47:34;;;;;;;5.70;2.20;;;;;;;;;;5071811;28;20035;-67
2021/07/16 12:50:08;;;;;;;7.13;2.00;;;;;;;;;;5071550;28;20031;-67
2021/07/16 12:52:34;;;;;;;5.47;2.13;;;;;;;;;;5071440;28;20052;-68
2021/07/16 12:55:12;;;;;;;51.75;3.40;;;;;;;;;;5071790;28;20447;-68
2021/07/16 12:57:38;;;;;;;7.10;1.95;;;;;;;;;;5071711;28;20095;-68
2021/07/16 13:00:16;;;;;;;11.65;2.42;;;;;;;;;;5071747;28;20082;-68
2021/07/16 13:02:42;;;;;;;22.75;2.58;;;;;;;;;;5069218;28;23134;-67
2021/07/16 13:05:08;;;;;;;7.95;2.42;;;;;;;;;;5071081;28;20033;-68
2021/07/16 13:07:34;;;;;;;12.02;2.38;;;;;;;;;;5071234;28;20017;-67
2021/07/16 13:10:01;;;;;;;5.20;1.85;;;;;;;;;;5053397;28;20035;-67
2021/07/16 13:12:31;;;;;;;13.90;2.97;;;;;;;;;;5065648;28;20371;-68
2021/07/16 13:15:04;;;;;;;7.38;1.75;;;;;;;;;;5070899;28;20455;-68
2021/07/16 13:17:31;;;;;;;6.35;1.95;;;;;;;;;;5073592;28;20495;-69
2021/07/16 13:19:59;;;;;;;7.72;2.25;;;;;;;;;;5075434;28;20030;-69
2021/07/16 13:22:27;;;;;;;8.48;2.50;;;;;;;;;;5083908;28;20020;-68
2021/07/16 13:24:53;;;;;;;10.75;2.47;;;;;;;;;;5095028;28;20111;-68
2021/07/16 13:27:20;;;;;;;9.98;2.63;;;;;;;;;;5095215;28;20043;-67
2021/07/16 13:29:46;;;;;;;10.05;1.80;;;;;;;;;;5095128;28;20024;-67
2021/07/16 13:32:13;;;;;;;5.35;1.80;;;;;;;;;;5058122;28;20033;-69
2021/07/16 13:34:39;;;;;;;6.05;1.40;;;;;;;;;;5054703;28;20135;-68
2021/07/16 13:37:05;;;;;;;5.15;1.67;;;;;;;;;;5053394;28;20036;-68
2021/07/16 13:39:31;;;;;;;8.00;1.63;;;;;;;;;;5053387;28;20029;-68
2021/07/16 13:41:57;;;;;;;6.18;1.77;;;;;;;;;;5054299;28;20100;-68
2021/07/16 13:44:23;;;;;;;6.95;2.03;;;;;;;;;;5054003;28;20021;-67
2021/07/16 13:46:49;;;;;;;7.65;1.80;;;;;;;;;;5054474;28;20029;-68
2021/07/16 13:49:15;;;;;;;7.75;1.80;;;;;;;;;;5054400;28;20049;-69
2021/07/16 13:51:42;;;;;;;4.80;2.00;;;;;;;;;;5054553;28;20021;-70
2021/07/16 13:54:11;;;;;;;3.58;1.70;;;;;;;;;;5054364;28;20029;-68
2021/07/16 13:56:37;;;;;;;6.03;1.70;;;;;;;;;;5056487;28;20040;-68
2021/07/16 13:59:03;;;;;;;4.22;1.67;;;;;;;;;;5072814;28;20055;-67
2021/07/16 14:01:29;;;;;;;9.48;2.20;;;;;;;;;;5073324;28;20020;-67
2021/07/16 14:03:55;;;;;;;8.15;2.55;;;;;;;;;;5073960;28;20036;-67
2021/07/16 14:06:22;;;;;;;5.65;1.80;;;;;;;;;;5073953;28;20515;-67
2021/07/16 14:08:48;;;;;;;9.07;2.03;;;;;;;;;;5054912;28;20474;-68
2021/07/16 14:11:14;;;;;;;4.47;1.95;;;;;;;;;;5053852;28;20087;-67
2021/07/16 14:13:40;;;;;;;4.15;1.85;;;;;;;;;;5053793;28;20473;-67
2021/07/16 14:16:06;;;;;;;6.57;2.50;;;;;;;;;;5053638;28;20081;-67
2021/07/16 14:18:32;;;;;;;5.82;2.15;;;;;;;;;;5054027;28;20025;-67
2021/07/16 14:20:59;;;;;;;5.20;2.00;;;;;;;;;;5052354;28;20474;-67
2021/07/16 14:23:25;;;;;;;6.93;2.67;;;;;;;;;;5053643;28;20021;-67
2021/07/16 14:25:52;;;;;;;8.90;2.78;;;;;;;;;;5052705;28;20047;-66
2021/07/16 14:28:18;;;;;;;7.78;3.05;;;;;;;;;;5053424;28;20495;-67
2021/07/16 14:30:48;;;;;;;8.73;3.00;;;;;;;;;;5053397;28;20075;-67
2021/07/16 14:33:14;;;;;;;7.50;2.55;;;;;;;;;;5052208;28;20028;-67
2021/07/16 14:35:40;;;;;;;6.00;2.10;;;;;;;;;;5053108;28;20032;-67
2021/07/16 14:38:07;;;;;;;8.18;2.45;;;;;;;;;;5053401;28;20115;-67